Time;durP1;ratioP1;P1;durP2;ratioP2;P2;SDS_P1;SDS_P2;PMS_P1;PMS_P2;Temp;Humidity;BMP_temperature;BMP_pressure;BME280_temperature;BME280_humidity;BME280_pressure;Samples;Min_cycle;Max_cycle;Signal;HPM_P1;HPM_P2
2022/01/07 00:02:41;;;;;;;0.40;0.40;;;-0.50;99.90;;;;;;5058264;28;20412;-67
2022/01/07 00:05:28;;;;;;;0.40;0.40;;;-0.50;99.90;;;;;;5059030;28;20520;-70
2022/01/07 00:08:15;;;;;;;0.40;0.40;;;-0.50;99.90;;;;;;5058217;28;20412;-68
2022/01/07 00:11:02;;;;;;;0.40;0.40;;;-0.60;99.90;;;;;;5057157;28;20440;-68
2022/01/07 00:13:50;;;;;;;0.40;0.40;;;-0.60;99.90;;;;;;5056961;28;20420;-68
2022/01/07 00:16:37;;;;;;;0.40;0.40;;;-0.60;99.90;;;;;;5054437;28;20468;-67
2022/01/07 00:19:24;;;;;;;0.40;0.40;;;-0.60;99.90;;;;;;5056426;28;20457;-70
2022/01/07 00:22:10;;;;;;;0.40;0.40;;;-0.60;99.90;;;;;;5056908;28;20421;-68
2022/01/07 00:24:57;;;;;;;0.40;0.40;;;-0.50;99.90;;;;;;5056958;28;20424;-67
2022/01/07 00:27:45;;;;;;;0.40;0.40;;;-0.60;99.90;;;;;;5057040;28;20432;-68
2022/01/07 00:30:33;;;;;;;0.40;0.40;;;-0.60;99.90;;;;;;5055658;28;20486;-68
2022/01/07 00:33:20;;;;;;;0.40;0.40;;;-0.70;99.90;;;;;;5057399;28;20435;-68
2022/01/07 00:36:08;;;;;;;0.40;0.40;;;-0.70;99.90;;;;;;5056625;28;20464;-69
2022/01/07 00:38:55;;;;;;;0.40;0.40;;;-0.70;99.90;;;;;;5057902;28;20460;-67
2022/01/07 00:41:42;;;;;;;0.40;0.40;;;-0.80;99.90;;;;;;5060545;28;20482;-69
2022/01/07 00:44:29;;;;;;;0.40;0.40;;;-0.80;99.90;;;;;;5059790;28;20425;-68
2022/01/07 00:47:17;;;;;;;0.40;0.40;;;-0.80;99.90;;;;;;5058730;28;20482;-67
2022/01/07 00:50:06;;;;;;;0.40;0.40;;;-0.80;99.90;;;;;;5060613;28;20452;-67
2022/01/07 00:52:54;;;;;;;0.40;0.40;;;-0.80;99.90;;;;;;5056426;28;20429;-69
2022/01/07 00:55:41;;;;;;;0.40;0.40;;;-0.90;99.90;;;;;;5055285;28;20439;-68
2022/01/07 00:58:28;;;;;;;0.40;0.40;;;-0.70;99.90;;;;;;5056869;28;20464;-69
2022/01/07 01:01:15;;;;;;;0.40;0.40;;;-0.70;99.90;;;;;;5066549;28;20435;-67
2022/01/07 01:04:04;;;;;;;0.40;0.40;;;-0.60;99.90;;;;;;5077948;28;20798;-67
2022/01/07 01:06:51;;;;;;;0.40;0.40;;;-0.70;99.90;;;;;;5077437;28;20493;-68
2022/01/07 01:09:37;;;;;;;0.40;0.40;;;-0.70;99.90;;;;;;5073218;28;20447;-69
2022/01/07 01:12:24;;;;;;;0.40;0.40;;;-0.80;99.90;;;;;;5075562;28;20423;-69
2022/01/07 01:15:15;;;;;;;0.40;0.40;;;-0.80;99.90;;;;;;5079438;28;20459;-68
2022/01/07 01:18:02;;;;;;;0.40;0.40;;;-0.80;99.90;;;;;;5080036;28;20494;-68
2022/01/07 01:20:50;;;;;;;0.40;0.40;;;-0.70;99.90;;;;;;5082572;28;20429;-67
2022/01/07 01:23:39;;;;;;;0.40;0.40;;;-0.70;99.90;;;;;;5081409;28;20432;-68
2022/01/07 01:26:25;;;;;;;0.40;0.40;;;-0.80;99.90;;;;;;5080183;28;20869;-69
2022/01/07 01:29:12;;;;;;;1.23;1.23;;;-0.80;99.90;;;;;;5079322;28;20481;-67
2022/01/07 01:31:59;;;;;;;0.40;0.40;;;-0.90;99.90;;;;;;5079835;28;20420;-67
2022/01/07 01:34:46;;;;;;;0.40;0.40;;;-0.90;99.90;;;;;;5078106;28;20674;-68
2022/01/07 01:37:34;;;;;;;0.40;0.40;;;-0.90;99.90;;;;;;5080028;28;20477;-67
2022/01/07 01:40:22;;;;;;;0.40;0.40;;;-0.90;99.90;;;;;;5078991;28;20443;-67
2022/01/07 01:43:09;;;;;;;0.40;0.40;;;-0.90;99.90;;;;;;5076817;28;20419;-68
2022/01/07 01:45:56;;;;;;;1.20;1.20;;;-1.00;99.90;;;;;;5075489;28;20455;-69
2022/01/07 01:48:44;;;;;;;0.40;0.40;;;-0.80;99.90;;;;;;5075146;28;20439;-67
2022/01/07 01:51:31;;;;;;;0.40;0.40;;;-0.70;99.90;;;;;;5077668;28;20420;-69
2022/01/07 01:54:19;;;;;;;0.40;0.40;;;-0.70;99.90;;;;;;5077578;28;20898;-67
2022/01/07 01:57:06;;;;;;;1.50;1.40;;;-0.70;99.90;;;;;;5079011;28;20423;-68
2022/01/07 01:59:53;;;;;;;0.40;0.40;;;-0.70;99.90;;;;;;5077651;28;20856;-68
2022/01/07 02:02:40;;;;;;;0.40;0.40;;;-0.70;99.90;;;;;;5058126;28;20502;-68
2022/01/07 02:05:27;;;;;;;0.40;0.40;;;-0.70;99.90;;;;;;5053607;28;20480;-69
2022/01/07 02:08:14;;;;;;;0.40;0.40;;;-0.80;99.90;;;;;;5053418;28;20427;-69
2022/01/07 02:11:03;;;;;;;0.40;0.40;;;-0.80;99.90;;;;;;5061782;28;20448;-70
2022/01/07 02:13:55;;;;;;;0.40;0.40;;;-0.80;99.90;;;;;;5053724;28;20405;-69
2022/01/07 02:16:42;;;;;;;0.40;0.40;;;-0.80;99.90;;;;;;5053552;28;20468;-69
2022/01/07 02:19:32;;;;;;;0.40;0.40;;;-0.70;99.90;;;;;;5052602;28;20496;-68
2022/01/07 02:22:19;;;;;;;0.40;0.40;;;-0.70;99.90;;;;;;5052167;28;20909;-70
2022/01/07 02:25:07;;;;;;;0.87;0.87;;;-0.50;99.90;;;;;;5051491;28;20440;-69
2022/01/07 02:27:55;;;;;;;0.40;0.40;;;-0.60;99.90;;;;;;5052744;28;20440;-69
2022/01/07 02:30:42;;;;;;;0.43;0.43;;;-0.70;99.90;;;;;;5052293;28;20779;-70
2022/01/07 02:33:29;;;;;;;0.40;0.40;;;-0.60;99.90;;;;;;5052134;28;20424;-69
2022/01/07 02:36:17;;;;;;;0.40;0.40;;;-0.70;99.90;;;;;;5051358;28;20448;-69
2022/01/07 02:39:04;;;;;;;0.40;0.40;;;-0.70;99.90;;;;;;5052481;28;20496;-69
2022/01/07 02:41:51;;;;;;;0.40;0.40;;;-0.70;99.90;;;;;;5056436;28;20425;-69
2022/01/07 02:44:38;;;;;;;0.40;0.40;;;-0.60;99.90;;;;;;5055050;28;20472;-69
2022/01/07 02:47:28;;;;;;;0.40;0.40;;;-0.50;99.90;;;;;;5054941;28;20474;-68
2022/01/07 02:50:15;;;;;;;0.40;0.40;;;-0.50;99.90;;;;;;5065552;28;20427;-69
2022/01/07 02:53:05;;;;;;;0.40;0.40;;;-0.60;99.90;;;;;;5064635;28;20428;-69
2022/01/07 02:55:52;;;;;;;0.40;0.40;;;-0.50;99.90;;;;;;5055549;28;20445;-69
2022/01/07 02:58:39;;;;;;;0.40;0.40;;;-0.70;99.90;;;;;;5056214;28;20525;-68
2022/01/07 03:01:26;;;;;;;0.40;0.40;;;-0.70;99.90;;;;;;5066330;28;20482;-71
2022/01/07 03:04:13;;;;;;;0.40;0.40;;;-0.80;99.90;;;;;;5075212;28;20480;-70
2022/01/07 03:07:00;;;;;;;0.40;0.40;;;-0.80;99.90;;;;;;5076461;28;20444;-69
2022/01/07 03:09:48;;;;;;;0.40;0.40;;;-0.70;99.90;;;;;;5075002;28;20424;-70
2022/01/07 03:12:36;;;;;;;0.40;0.40;;;-0.60;99.90;;;;;;5074388;28;20424;-69
2022/01/07 03:15:24;;;;;;;0.50;0.50;;;-0.50;99.90;;;;;;5100092;22;20479;-71
2022/01/07 03:18:10;;;;;;;0.40;0.40;;;-0.50;99.90;;;;;;5096188;28;20423;-71
2022/01/07 03:20:58;;;;;;;0.40;0.40;;;-0.40;99.90;;;;;;5091574;28;20427;-71
2022/01/07 03:23:46;;;;;;;0.40;0.40;;;-0.60;99.90;;;;;;5086858;28;20423;-71
2022/01/07 03:26:34;;;;;;;0.40;0.40;;;-0.50;99.90;;;;;;5075969;28;20497;-71
2022/01/07 03:29:21;;;;;;;0.40;0.40;;;-0.50;99.90;;;;;;5073985;28;20458;-71
2022/01/07 03:32:10;;;;;;;0.40;0.40;;;-0.50;99.90;;;;;;5073812;28;20502;-71
2022/01/07 03:34:56;;;;;;;0.40;0.40;;;-0.50;99.90;;;;;;5074077;28;20412;-71
2022/01/07 03:37:44;;;;;;;0.40;0.40;;;-0.50;99.90;;;;;;5073892;28;20831;-71
2022/01/07 03:40:31;;;;;;;0.40;0.40;;;-0.40;99.90;;;;;;5072923;28;20597;-71
2022/01/07 03:43:19;;;;;;;0.50;0.50;;;-0.30;99.90;;;;;;5074587;28;20423;-71
2022/01/07 03:46:06;;;;;;;0.40;0.40;;;-0.30;99.90;;;;;;5074288;28;20505;-71
2022/01/07 03:48:53;;;;;;;0.50;0.50;;;-0.40;99.90;;;;;;5073482;28;20474;-71
2022/01/07 03:51:41;;;;;;;0.40;0.40;;;-0.20;99.90;;;;;;5073571;28;20474;-71
2022/01/07 03:54:28;;;;;;;0.40;0.40;;;-0.40;99.90;;;;;;5074071;28;20427;-71
2022/01/07 03:57:15;;;;;;;0.40;0.40;;;-0.30;99.90;;;;;;5073903;28;20439;-72
2022/01/07 04:00:05;;;;;;;0.87;0.87;;;-0.30;99.90;;;;;;5073586;28;20471;-71
2022/01/07 04:02:52;;;;;;;1.63;1.63;;;-0.30;99.90;;;;;;5054424;28;20425;-72
2022/01/07 04:05:39;;;;;;;0.40;0.40;;;-0.20;99.90;;;;;;5054680;28;21023;-71
2022/01/07 04:08:26;;;;;;;0.40;0.40;;;-0.20;99.90;;;;;;5054919;28;20432;-71
2022/01/07 04:11:13;;;;;;;0.40;0.40;;;-0.20;99.90;;;;;;5072282;28;20465;-72
2022/01/07 04:14:00;;;;;;;0.40;0.40;;;-0.10;99.90;;;;;;5073965;28;20424;-71
2022/01/07 04:16:48;;;;;;;0.50;0.50;;;-0.10;99.90;;;;;;5075003;28;20467;-72
2022/01/07 04:19:35;;;;;;;0.40;0.40;;;-0.10;99.90;;;;;;5077654;28;20471;-72
2022/01/07 04:22:22;;;;;;;0.40;0.40;;;-0.10;99.90;;;;;;5075805;28;20919;-71
2022/01/07 04:25:13;;;;;;;0.40;0.40;;;0.00;99.90;;;;;;5073164;28;20508;-71
2022/01/07 04:28:02;;;;;;;0.40;0.40;;;0.00;99.90;;;;;;5072544;28;20416;-72
2022/01/07 04:30:49;;;;;;;0.50;0.50;;;0.10;99.90;;;;;;5071845;28;20412;-71
2022/01/07 04:33:37;;;;;;;0.40;0.40;;;0.20;99.90;;;;;;5072586;28;20435;-72
2022/01/07 04:36:24;;;;;;;0.50;0.50;;;0.20;99.90;;;;;;5072215;28;20450;-71
2022/01/07 04:39:11;;;;;;;0.40;0.40;;;0.20;99.90;;;;;;5072775;28;20456;-72
2022/01/07 04:41:59;;;;;;;0.70;0.70;;;0.30;99.90;;;;;;5072564;28;20424;-71
2022/01/07 04:44:46;;;;;;;0.40;0.40;;;0.30;99.90;;;;;;5072436;28;21073;-72
2022/01/07 04:47:35;;;;;;;0.50;0.50;;;0.30;99.90;;;;;;5072429;28;20470;-70
2022/01/07 04:50:24;;;;;;;0.50;0.50;;;0.30;99.90;;;;;;5073294;28;21061;-73
2022/01/07 04:53:11;;;;;;;0.43;0.43;;;0.30;99.90;;;;;;5074397;28;20521;-71
2022/01/07 04:55:59;;;;;;;0.40;0.40;;;0.20;99.90;;;;;;5078570;28;20439;-70
2022/01/07 04:58:45;;;;;;;0.50;0.50;;;0.20;99.90;;;;;;5073751;28;20434;-70
2022/01/07 05:01:32;;;;;;;0.40;0.40;;;0.20;99.90;;;;;;5071625;28;20939;-70
2022/01/07 05:04:19;;;;;;;0.80;0.80;;;0.10;99.90;;;;;;5073061;28;20452;-71
2022/01/07 05:07:07;;;;;;;0.40;0.40;;;0.30;99.90;;;;;;5072584;28;20439;-71
2022/01/07 05:09:54;;;;;;;0.40;0.40;;;0.20;99.90;;;;;;5072830;28;20935;-72
2022/01/07 05:12:42;;;;;;;0.40;0.40;;;0.20;99.90;;;;;;5072710;28;20427;-72
2022/01/07 05:15:30;;;;;;;0.40;0.40;;;0.30;99.90;;;;;;5072780;28;20455;-73
2022/01/07 05:18:16;;;;;;;0.40;0.40;;;0.20;99.90;;;;;;5073363;28;20430;-70
2022/01/07 05:21:03;;;;;;;0.40;0.40;;;0.30;99.90;;;;;;5073327;28;20526;-71
2022/01/07 05:23:52;;;;;;;0.40;0.40;;;0.30;99.90;;;;;;5073165;28;20473;-71
2022/01/07 05:26:39;;;;;;;0.50;0.50;;;0.30;99.90;;;;;;5073052;28;20440;-71
2022/01/07 05:29:26;;;;;;;0.40;0.40;;;0.30;99.90;;;;;;5072111;28;20516;-71
2022/01/07 05:32:13;;;;;;;0.40;0.40;;;0.30;99.90;;;;;;5072494;28;20419;-71
2022/01/07 05:35:00;;;;;;;0.40;0.40;;;0.30;99.90;;;;;;5072608;28;20510;-72
2022/01/07 05:37:46;;;;;;;0.40;0.40;;;0.30;99.90;;;;;;5072505;28;20431;-71
2022/01/07 05:40:35;;;;;;;0.43;0.43;;;0.30;99.90;;;;;;5072348;28;20471;-70
2022/01/07 05:43:22;;;;;;;0.40;0.40;;;0.30;99.90;;;;;;5073230;28;20424;-70
2022/01/07 05:46:10;;;;;;;0.40;0.40;;;0.40;99.90;;;;;;5071639;28;20443;-70
2022/01/07 05:48:57;;;;;;;0.50;0.50;;;0.40;99.90;;;;;;5073026;28;20426;-70
2022/01/07 05:51:44;;;;;;;0.40;0.40;;;0.50;99.90;;;;;;5072331;28;20412;-70
2022/01/07 05:54:30;;;;;;;0.40;0.40;;;0.50;99.90;;;;;;5073223;28;20463;-71
2022/01/07 05:57:19;;;;;;;0.40;0.40;;;0.60;99.90;;;;;;5072129;28;20449;-70
2022/01/07 06:00:08;;;;;;;0.40;0.40;;;0.60;99.90;;;;;;5071328;28;20459;-71
2022/01/07 06:02:55;;;;;;;0.40;0.40;;;0.60;99.90;;;;;;5071577;28;20525;-72
2022/01/07 06:05:42;;;;;;;0.40;0.40;;;0.60;99.90;;;;;;5071979;28;20475;-71
2022/01/07 06:08:28;;;;;;;0.40;0.40;;;0.60;99.90;;;;;;5073075;28;20447;-72
2022/01/07 06:11:15;;;;;;;0.50;0.50;;;0.60;99.90;;;;;;5071991;28;20515;-72
2022/01/07 06:14:04;;;;;;;0.40;0.40;;;0.60;99.90;;;;;;5073245;28;20451;-71
2022/01/07 06:16:51;;;;;;;0.40;0.40;;;0.60;99.90;;;;;;5105019;28;20461;-71
2022/01/07 06:19:38;;;;;;;0.40;0.40;;;0.50;99.90;;;;;;5113454;28;20478;-71
2022/01/07 06:22:24;;;;;;;0.40;0.40;;;0.50;99.90;;;;;;5111296;28;20449;-71
2022/01/07 06:25:12;;;;;;;0.40;0.40;;;0.50;99.90;;;;;;5110074;28;20452;-71
2022/01/07 06:27:59;;;;;;;0.40;0.40;;;0.50;99.90;;;;;;5108794;28;20430;-72
2022/01/07 06:30:47;;;;;;;0.40;0.40;;;0.50;99.90;;;;;;5098385;28;20458;-71
2022/01/07 06:33:34;;;;;;;0.40;0.40;;;0.60;99.90;;;;;;5099397;28;20426;-72
2022/01/07 06:36:20;;;;;;;0.40;0.40;;;0.70;99.90;;;;;;5097990;28;20453;-72
2022/01/07 06:39:07;;;;;;;0.40;0.40;;;0.50;99.90;;;;;;5096585;28;20468;-71
2022/01/07 06:41:55;;;;;;;2.93;2.83;;;0.60;99.90;;;;;;5093187;28;21034;-72
2022/01/07 06:44:42;;;;;;;0.43;0.43;;;0.60;99.90;;;;;;5097126;28;20425;-73
2022/01/07 06:47:30;;;;;;;0.40;0.40;;;0.70;99.90;;;;;;5093809;28;20445;-71
2022/01/07 06:50:17;;;;;;;0.40;0.40;;;0.70;99.90;;;;;;5086031;28;20979;-71
2022/01/07 06:53:04;;;;;;;0.50;0.50;;;0.70;99.90;;;;;;5075090;28;20430;-71
2022/01/07 06:55:51;;;;;;;0.40;0.40;;;0.80;99.90;;;;;;5074942;28;20572;-71
2022/01/07 06:58:38;;;;;;;0.40;0.40;;;0.80;99.90;;;;;;5076048;28;20446;-72
2022/01/07 07:01:27;;;;;;;0.40;0.40;;;0.80;99.90;;;;;;5085782;28;20567;-71
2022/01/07 07:04:16;;;;;;;0.40;0.40;;;0.80;99.90;;;;;;5095795;28;20454;-72
2022/01/07 07:07:03;;;;;;;0.40;0.40;;;0.80;99.90;;;;;;5094444;28;21104;-71
2022/01/07 07:09:49;;;;;;;0.50;0.50;;;0.90;99.90;;;;;;5080604;28;20442;-71
2022/01/07 07:12:36;;;;;;;0.40;0.40;;;0.90;99.90;;;;;;5094665;28;20422;-72
2022/01/07 07:15:23;;;;;;;0.50;0.50;;;0.70;99.90;;;;;;5083843;28;20855;-72
2022/01/07 07:18:10;;;;;;;0.40;0.40;;;0.90;99.90;;;;;;5096620;28;20430;-73
2022/01/07 07:20:59;;;;;;;0.40;0.40;;;0.90;99.90;;;;;;5104778;28;20472;-72
2022/01/07 07:23:46;;;;;;;0.50;0.50;;;0.90;99.90;;;;;;5098607;28;20433;-73
2022/01/07 07:26:33;;;;;;;0.40;0.40;;;0.90;99.90;;;;;;5086037;28;20453;-73
2022/01/07 07:29:20;;;;;;;0.40;0.40;;;1.00;99.90;;;;;;5086352;28;20495;-71
2022/01/07 07:32:09;;;;;;;0.40;0.40;;;0.90;99.90;;;;;;5091205;28;20415;-72
2022/01/07 07:35:00;;;;;;;0.40;0.40;;;0.90;99.90;;;;;;5091084;28;20425;-72
2022/01/07 07:37:49;;;;;;;0.40;0.40;;;0.90;99.90;;;;;;5091258;28;20503;-71
2022/01/07 07:40:36;;;;;;;1.53;1.53;;;0.90;99.90;;;;;;5090397;28;20512;-71
2022/01/07 07:43:22;;;;;;;0.40;0.40;;;0.80;99.90;;;;;;5090343;28;20431;-72
2022/01/07 07:46:09;;;;;;;0.40;0.40;;;0.90;99.90;;;;;;5090590;28;20466;-71
2022/01/07 07:48:57;;;;;;;0.40;0.40;;;0.90;99.90;;;;;;5087365;28;20923;-71
2022/01/07 07:51:44;;;;;;;0.50;0.50;;;0.90;99.90;;;;;;5099437;28;20424;-73
2022/01/07 07:54:32;;;;;;;0.40;0.40;;;1.00;99.90;;;;;;5090267;28;20418;-72
2022/01/07 07:57:21;;;;;;;0.40;0.40;;;0.90;99.90;;;;;;5092521;28;20451;-74
2022/01/07 08:00:08;;;;;;;0.40;0.40;;;1.00;99.90;;;;;;5082827;28;20478;-71
2022/01/07 08:02:55;;;;;;;0.40;0.40;;;1.00;99.90;;;;;;5079993;28;20432;-71
2022/01/07 08:05:42;;;;;;;0.40;0.40;;;1.00;99.90;;;;;;5083745;28;21122;-71
2022/01/07 08:08:31;;;;;;;0.40;0.40;;;1.00;99.90;;;;;;5083047;28;20421;-71
2022/01/07 08:11:22;;;;;;;0.50;0.50;;;1.10;99.90;;;;;;5080793;28;20414;-71
2022/01/07 08:17:13;;;;;;;0.50;0.50;;;1.20;99.90;;;;;;5080596;28;20979;-72
2022/01/07 08:20:00;;;;;;;0.50;0.50;;;1.30;99.90;;;;;;5053395;28;21062;-72
2022/01/07 08:22:47;;;;;;;0.40;0.40;;;1.30;99.90;;;;;;5072752;28;20443;-72
2022/01/07 08:25:34;;;;;;;0.40;0.40;;;1.30;99.90;;;;;;5078370;28;20447;-71
2022/01/07 08:28:26;;;;;;;0.50;0.50;;;1.30;99.90;;;;;;5084291;28;20923;-71
2022/01/07 08:31:26;;;;;;;0.40;0.40;;;1.30;99.90;;;;;;5065494;28;20429;-71
2022/01/07 08:37:18;;;;;;;0.40;0.40;;;1.40;99.90;;;;;;5052243;28;20467;-71
2022/01/07 08:40:06;;;;;;;0.40;0.40;;;1.50;99.90;;;;;;5065594;28;20454;-71
2022/01/07 08:42:53;;;;;;;0.40;0.40;;;1.50;99.90;;;;;;5067011;28;20421;-71
2022/01/07 08:45:43;;;;;;;0.50;0.50;;;1.70;99.90;;;;;;5071868;28;20958;-72
2022/01/07 08:48:31;;;;;;;0.40;0.40;;;1.80;99.90;;;;;;5067843;28;20549;-71
2022/01/07 08:51:18;;;;;;;0.50;0.50;;;1.90;99.90;;;;;;5067193;28;20432;-71
2022/01/07 08:54:05;;;;;;;0.40;0.40;;;2.00;99.90;;;;;;5059334;28;20443;-71
2022/01/07 08:56:52;;;;;;;0.50;0.50;;;2.10;99.90;;;;;;5075233;28;20470;-72
2022/01/07 08:59:40;;;;;;;0.50;0.50;;;2.20;99.90;;;;;;5060952;28;20799;-71
2022/01/07 09:02:28;;;;;;;0.50;0.50;;;2.30;99.90;;;;;;5078283;28;20438;-73
2022/01/07 09:05:16;;;;;;;0.40;0.40;;;2.40;99.90;;;;;;5073124;28;20427;-71
2022/01/07 09:08:03;;;;;;;0.40;0.40;;;2.40;99.90;;;;;;5057826;28;20822;-71
2022/01/07 09:10:50;;;;;;;0.40;0.40;;;2.40;99.90;;;;;;5053337;28;20421;-72
2022/01/07 09:13:37;;;;;;;0.40;0.40;;;2.50;99.90;;;;;;5061670;28;20526;-72
2022/01/07 09:16:23;;;;;;;0.50;0.50;;;2.50;99.90;;;;;;5056635;28;20456;-71
2022/01/07 09:19:12;;;;;;;0.40;0.40;;;2.50;99.90;;;;;;5066348;28;20455;-72
2022/01/07 09:21:59;;;;;;;0.40;0.40;;;2.50;99.90;;;;;;5054220;28;20467;-72
2022/01/07 09:24:46;;;;;;;0.50;0.50;;;2.50;99.90;;;;;;5053501;28;20447;-71
2022/01/07 09:27:33;;;;;;;0.40;0.40;;;2.60;99.90;;;;;;5053038;28;20495;-72
2022/01/07 09:30:20;;;;;;;0.40;0.40;;;2.80;99.90;;;;;;5052910;28;20958;-72
2022/01/07 09:33:07;;;;;;;0.40;0.40;;;2.90;99.90;;;;;;5061574;28;20443;-72
2022/01/07 09:35:55;;;;;;;0.40;0.40;;;3.20;99.90;;;;;;5085176;28;20447;-72
2022/01/07 09:38:42;;;;;;;0.70;0.70;;;3.30;99.90;;;;;;5070471;28;20429;-73
2022/01/07 09:41:32;;;;;;;0.43;0.43;;;3.40;99.90;;;;;;5076029;28;20471;-72
2022/01/07 09:44:19;;;;;;;0.40;0.40;;;3.50;99.90;;;;;;5063636;28;20839;-73
2022/01/07 09:47:06;;;;;;;0.40;0.40;;;3.60;99.90;;;;;;5055398;28;20468;-72
2022/01/07 09:49:53;;;;;;;0.40;0.40;;;3.70;99.90;;;;;;5063550;28;20951;-72
2022/01/07 09:52:42;;;;;;;0.40;0.40;;;3.70;99.90;;;;;;5065956;28;20476;-72
2022/01/07 09:55:29;;;;;;;0.50;0.50;;;3.80;99.90;;;;;;5057855;28;20476;-72
2022/01/07 09:58:16;;;;;;;0.40;0.40;;;4.00;99.90;;;;;;5060402;28;20492;-72
2022/01/07 10:01:05;;;;;;;0.40;0.40;;;4.10;99.90;;;;;;5056286;28;20460;-71
2022/01/07 10:03:53;;;;;;;1.13;1.13;;;4.00;99.90;;;;;;5056170;28;20464;-71
2022/01/07 10:06:40;;;;;;;0.50;0.50;;;4.10;99.90;;;;;;5070000;28;20444;-71
2022/01/07 10:09:28;;;;;;;0.40;0.40;;;4.20;99.90;;;;;;5061660;28;20435;-71
2022/01/07 10:12:15;;;;;;;0.40;0.40;;;4.10;99.90;;;;;;5064719;28;20548;-71
2022/01/07 10:15:12;;;;;;;0.77;0.77;;;4.10;99.90;;;;;;5060302;28;20462;-71
2022/01/07 10:18:03;;;;;;;0.60;0.60;;;4.10;99.90;;;;;;5060793;28;20505;-71
2022/01/07 10:20:50;;;;;;;1.27;1.17;;;4.10;99.90;;;;;;5054236;28;20464;-71
2022/01/07 10:23:38;;;;;;;2.10;2.10;;;4.10;99.90;;;;;;5055948;28;20518;-72
2022/01/07 10:26:29;;;;;;;1.60;0.83;;;4.20;99.90;;;;;;5056324;28;20494;-72
2022/01/07 10:29:27;;;;;;;0.40;0.40;;;4.30;99.90;;;;;;5068864;28;20501;-72
2022/01/07 10:32:29;;;;;;;0.40;0.40;;;4.30;99.90;;;;;;5068959;28;20443;-72
2022/01/07 10:35:18;;;;;;;0.50;0.50;;;4.20;99.90;;;;;;5054803;28;20423;-72
2022/01/07 10:38:05;;;;;;;0.40;0.40;;;4.20;99.90;;;;;;5057320;28;20451;-72
2022/01/07 10:40:54;;;;;;;0.47;0.47;;;4.20;99.90;;;;;;5071744;28;20540;-71
2022/01/07 10:43:42;;;;;;;1.57;0.60;;;4.30;99.90;;;;;;5070539;28;20454;-72
2022/01/07 10:46:31;;;;;;;0.40;0.40;;;4.30;99.90;;;;;;5075628;28;20513;-71
2022/01/07 10:49:31;;;;;;;0.50;0.50;;;4.40;99.90;;;;;;5056868;28;20828;-71
2022/01/07 10:52:22;;;;;;;0.60;0.60;;;4.40;99.90;;;;;;5064978;28;20427;-71
2022/01/07 10:55:11;;;;;;;0.60;0.60;;;4.30;99.90;;;;;;5063729;28;20463;-71
2022/01/07 10:57:58;;;;;;;1.07;0.97;;;4.40;99.90;;;;;;5056595;28;20434;-72
2022/01/07 11:00:46;;;;;;;0.40;0.40;;;4.40;99.90;;;;;;5054975;28;20795;-72
2022/01/07 11:03:34;;;;;;;0.40;0.40;;;4.50;99.90;;;;;;5056135;28;20481;-72
2022/01/07 11:06:23;;;;;;;0.40;0.40;;;4.50;99.90;;;;;;5055592;28;20943;-72
2022/01/07 11:09:12;;;;;;;0.40;0.40;;;4.50;99.90;;;;;;5055369;28;20491;-72
2022/01/07 11:12:03;;;;;;;0.40;0.40;;;4.60;99.90;;;;;;5069312;28;20947;-74
2022/01/07 11:14:50;;;;;;;0.40;0.40;;;4.60;99.90;;;;;;5060203;28;20503;-72
2022/01/07 11:17:38;;;;;;;0.40;0.40;;;4.60;99.90;;;;;;5054673;28;20546;-71
2022/01/07 11:20:26;;;;;;;0.40;0.40;;;4.50;99.90;;;;;;5054646;28;20428;-71
2022/01/07 11:23:13;;;;;;;0.43;0.43;;;4.60;99.90;;;;;;5055715;28;20455;-71
2022/01/07 11:26:02;;;;;;;0.60;0.60;;;4.60;99.90;;;;;;5055372;28;20451;-72
2022/01/07 11:29:00;;;;;;;0.50;0.50;;;4.50;99.90;;;;;;5063296;28;20442;-71
2022/01/07 11:31:51;;;;;;;0.40;0.40;;;4.40;99.90;;;;;;5054593;28;20452;-72
2022/01/07 11:34:40;;;;;;;0.60;0.60;;;4.40;99.90;;;;;;5073671;28;20423;-71
2022/01/07 11:37:37;;;;;;;0.60;0.60;;;4.40;99.90;;;;;;5063648;28;20843;-71
2022/01/07 11:40:44;;;;;;;0.40;0.40;;;4.30;99.90;;;;;;5069216;28;20811;-72
2022/01/07 11:43:39;;;;;;;0.50;0.50;;;4.40;99.90;;;;;;5072877;28;20514;-72
2022/01/07 11:46:31;;;;;;;0.50;0.50;;;4.40;99.90;;;;;;5069140;28;20453;-72
2022/01/07 11:49:33;;;;;;;0.50;0.50;;;4.30;99.90;;;;;;5071952;28;20783;-72
2022/01/07 11:52:32;;;;;;;0.40;0.40;;;4.30;99.90;;;;;;5070803;28;20435;-72
2022/01/07 11:55:26;;;;;;;0.40;0.40;;;4.30;99.90;;;;;;5072692;28;20482;-71
2022/01/07 11:58:14;;;;;;;0.40;0.40;;;4.40;99.90;;;;;;5054834;28;20982;-70
2022/01/07 12:01:04;;;;;;;0.40;0.40;;;4.50;99.90;;;;;;5065060;28;21165;-71
2022/01/07 12:03:53;;;;;;;0.97;0.73;;;4.50;99.90;;;;;;5056723;28;20828;-72
2022/01/07 12:06:48;;;;;;;0.50;0.50;;;4.30;99.90;;;;;;5059683;28;20459;-71
2022/01/07 12:09:39;;;;;;;0.50;0.50;;;4.10;99.90;;;;;;5061383;28;20434;-71
2022/01/07 12:12:34;;;;;;;0.40;0.40;;;4.00;99.90;;;;;;5053809;28;20422;-71
2022/01/07 12:15:20;;;;;;;2.30;2.20;;;4.00;99.90;;;;;;5068029;28;20438;-70
2022/01/07 12:18:11;;;;;;;0.50;0.50;;;4.00;99.90;;;;;;5067100;28;20450;-71
2022/01/07 12:20:58;;;;;;;0.50;0.50;;;4.00;99.90;;;;;;5067044;28;20431;-70
2022/01/07 12:23:45;;;;;;;2.03;2.00;;;4.00;99.90;;;;;;5055503;28;20501;-71
2022/01/07 12:26:33;;;;;;;0.43;0.43;;;4.00;99.90;;;;;;5066238;28;20973;-71
2022/01/07 12:29:21;;;;;;;0.50;0.50;;;4.10;99.90;;;;;;5056115;28;20483;-73
2022/01/07 12:32:11;;;;;;;0.40;0.40;;;4.00;99.90;;;;;;5059628;28;20900;-71
2022/01/07 12:34:58;;;;;;;0.60;0.60;;;4.10;99.90;;;;;;5061326;28;20433;-71
2022/01/07 12:37:44;;;;;;;0.60;0.60;;;4.00;99.90;;;;;;5068645;28;20431;-71
2022/01/07 12:40:31;;;;;;;0.40;0.40;;;3.90;99.90;;;;;;5074745;28;20485;-74
2022/01/07 12:43:22;;;;;;;0.40;0.40;;;4.00;99.90;;;;;;5086720;28;20471;-72
2022/01/07 12:46:10;;;;;;;0.40;0.40;;;4.00;99.90;;;;;;5070735;28;20432;-74
2022/01/07 12:48:57;;;;;;;0.50;0.50;;;4.10;99.90;;;;;;5068957;28;20429;-72
2022/01/07 12:52:02;;;;;;;0.40;0.40;;;4.20;99.90;;;;;;5063789;28;20420;-72
2022/01/07 12:54:57;;;;;;;1.70;0.70;;;4.20;99.90;;;;;;5061898;28;20432;-72
2022/01/07 12:57:47;;;;;;;0.40;0.40;;;4.20;99.90;;;;;;5060878;28;20432;-71
2022/01/07 13:00:36;;;;;;;0.40;0.40;;;4.20;99.90;;;;;;5069246;28;20521;-72
2022/01/07 13:03:26;;;;;;;0.40;0.40;;;4.20;99.90;;;;;;5058134;28;20447;-71
2022/01/07 13:06:13;;;;;;;0.40;0.40;;;4.20;99.90;;;;;;5060419;28;20456;-71
2022/01/07 13:09:00;;;;;;;1.43;1.43;;;4.10;99.90;;;;;;5063586;28;20582;-71
2022/01/07 13:11:49;;;;;;;0.50;0.50;;;4.00;99.90;;;;;;5065157;28;20434;-73
2022/01/07 13:14:47;;;;;;;0.40;0.40;;;4.00;99.90;;;;;;5062172;28;20478;-71
2022/01/07 13:17:35;;;;;;;0.50;0.50;;;3.90;99.90;;;;;;5060032;28;20430;-73
2022/01/07 13:20:28;;;;;;;0.40;0.40;;;3.80;99.90;;;;;;5061871;28;20419;-72
2022/01/07 13:23:16;;;;;;;0.50;0.50;;;3.70;99.90;;;;;;5072941;28;20546;-72
2022/01/07 13:26:04;;;;;;;0.43;0.43;;;3.70;99.90;;;;;;5065029;28;20451;-70
2022/01/07 13:28:52;;;;;;;0.50;0.50;;;3.70;99.90;;;;;;5062637;28;20489;-70
2022/01/07 13:31:40;;;;;;;0.40;0.40;;;3.80;99.90;;;;;;5065214;28;20431;-71
2022/01/07 13:34:29;;;;;;;0.50;0.50;;;3.70;99.90;;;;;;5061860;28;20420;-70
2022/01/07 13:37:19;;;;;;;0.40;0.40;;;3.60;99.90;;;;;;5065301;28;20450;-71
2022/01/07 13:40:08;;;;;;;0.43;0.43;;;3.60;99.90;;;;;;5064825;28;20430;-71
2022/01/07 13:43:07;;;;;;;0.40;0.40;;;3.70;99.90;;;;;;5062938;28;20468;-71
2022/01/07 13:46:08;;;;;;;0.40;0.40;;;3.70;99.90;;;;;;5065536;28;20599;-73
2022/01/07 13:48:57;;;;;;;0.97;0.97;;;3.70;99.90;;;;;;5063261;28;20470;-72
2022/01/07 13:51:55;;;;;;;0.40;0.40;;;3.80;99.90;;;;;;5053919;28;20424;-72
2022/01/07 13:54:45;;;;;;;0.40;0.40;;;3.80;99.90;;;;;;5056079;28;20416;-71
2022/01/07 13:57:34;;;;;;;0.50;0.50;;;3.70;99.90;;;;;;5052710;28;20565;-71
2022/01/07 14:00:21;;;;;;;0.40;0.40;;;3.60;99.90;;;;;;5068988;28;20805;-72
2022/01/07 14:03:09;;;;;;;0.40;0.40;;;3.70;99.90;;;;;;5053238;28;20472;-71
2022/01/07 14:06:04;;;;;;;0.80;0.80;;;3.70;99.90;;;;;;5057730;28;20454;-72
2022/01/07 14:09:11;;;;;;;0.50;0.50;;;3.70;99.90;;;;;;5052562;28;20439;-71
2022/01/07 14:12:02;;;;;;;0.50;0.50;;;3.40;99.90;;;;;;5070522;28;20430;-71
2022/01/07 14:14:49;;;;;;;0.40;0.40;;;3.40;99.90;;;;;;5082620;28;20433;-72
2022/01/07 14:17:37;;;;;;;0.50;0.50;;;3.50;99.90;;;;;;5074685;28;20430;-72
2022/01/07 14:20:24;;;;;;;0.47;0.47;;;3.50;99.90;;;;;;5082148;28;20419;-71
2022/01/07 14:23:12;;;;;;;0.40;0.40;;;3.40;99.90;;;;;;5067247;28;20506;-71
2022/01/07 14:26:05;;;;;;;0.40;0.40;;;3.40;99.90;;;;;;5090275;28;20443;-76
2022/01/07 14:28:57;;;;;;;0.50;0.50;;;3.40;99.90;;;;;;5079977;28;20429;-72
2022/01/07 14:31:44;;;;;;;0.50;0.50;;;3.40;99.90;;;;;;5084221;28;20962;-73
2022/01/07 14:34:31;;;;;;;0.40;0.40;;;3.40;99.90;;;;;;5065295;28;20431;-72
2022/01/07 14:37:18;;;;;;;0.40;0.40;;;3.40;99.90;;;;;;5072976;28;20468;-73
2022/01/07 14:40:07;;;;;;;0.50;0.50;;;3.40;99.90;;;;;;5059450;28;20424;-72
2022/01/07 14:42:56;;;;;;;0.40;0.40;;;3.40;99.90;;;;;;5068514;28;20476;-72
2022/01/07 14:45:45;;;;;;;0.40;0.40;;;3.40;99.90;;;;;;5061180;28;20463;-71
2022/01/07 14:48:31;;;;;;;0.40;0.40;;;3.40;99.90;;;;;;5059581;28;20440;-72
2022/01/07 14:51:19;;;;;;;0.50;0.50;;;3.40;99.90;;;;;;5072265;28;20460;-72